createdAt,value
2022-09-09T00:00:18.158Z,14.60
2022-09-09T00:03:18.039Z,14.60
2022-09-09T00:06:08.503Z,14.60
2022-09-09T00:09:00.626Z,14.60
2022-09-09T00:11:57.851Z,14.60
2022-09-09T00:14:32.274Z,14.70
2022-09-09T00:17:05.767Z,14.60
2022-09-09T00:19:55.692Z,14.50
2022-09-09T00:22:24.866Z,14.50
2022-09-09T00:24:56.287Z,14.40
2022-09-09T00:27:46.438Z,14.40
2022-09-09T00:30:17.269Z,14.30
2022-09-09T00:32:45.159Z,14.30
2022-09-09T00:35:22.709Z,14.30
2022-09-09T00:37:53.014Z,14.30
2022-09-09T00:40:34.030Z,14.30
2022-09-09T00:43:19.614Z,14.20
2022-09-09T00:46:13.883Z,14.20
2022-09-09T00:48:53.231Z,14.30
2022-09-09T00:51:39.118Z,14.30
2022-09-09T00:54:53.651Z,14.20
2022-09-09T00:57:30.459Z,14.20
2022-09-09T01:00:16.140Z,14.20
2022-09-09T01:03:13.880Z,14.20
2022-09-09T01:05:51.948Z,14.10
2022-09-09T01:08:46.076Z,14.10
2022-09-09T01:11:23.388Z,14.00
2022-09-09T01:14:00.090Z,14.00
2022-09-09T01:16:31.087Z,14.10
2022-09-09T01:18:59.379Z,14.10
2022-09-09T01:21:55.502Z,14.00
2022-09-09T01:24:28.252Z,14.00
2022-09-09T01:27:15.933Z,14.00
2022-09-09T01:29:43.192Z,13.90
2022-09-09T01:32:41.516Z,13.90
2022-09-09T01:35:22.747Z,13.90
2022-09-09T01:37:49.623Z,13.90
2022-09-09T01:40:16.823Z,13.90
2022-09-09T01:42:43.693Z,13.90
2022-09-09T01:45:10.818Z,14.00
2022-09-09T01:47:37.743Z,14.00
2022-09-09T01:50:15.925Z,13.90
2022-09-09T01:52:44.248Z,13.90
2022-09-09T01:55:13.354Z,13.90
2022-09-09T01:57:59.845Z,13.90
2022-09-09T02:00:27.286Z,13.90
2022-09-09T02:03:28.651Z,13.80
2022-09-09T02:06:20.673Z,13.90
2022-09-09T02:08:56.631Z,14.00
2022-09-09T02:11:27.687Z,14.00
2022-09-09T02:14:26.130Z,14.00
2022-09-09T02:17:00.262Z,14.00
2022-09-09T02:19:43.275Z,14.00
2022-09-09T02:22:35.601Z,14.10
2022-09-09T02:25:06.270Z,14.10
2022-09-09T02:27:34.971Z,14.10
2022-09-09T02:30:03.337Z,14.10
2022-09-09T02:32:41.244Z,14.10
2022-09-09T02:35:15.404Z,14.10
2022-09-09T02:37:47.180Z,14.10
2022-09-09T02:40:19.138Z,14.20
2022-09-09T02:42:50.919Z,14.20
2022-09-09T02:45:25.987Z,14.10
2022-09-09T02:48:24.652Z,14.10
2022-09-09T02:50:58.134Z,14.10
2022-09-09T02:53:40.661Z,14.10
2022-09-09T02:56:17.120Z,14.10
2022-09-09T02:58:47.240Z,14.10
2022-09-09T03:01:15.243Z,14.10
2022-09-09T03:03:43.241Z,14.20
2022-09-09T03:06:15.383Z,14.20
2022-09-09T03:08:49.222Z,14.10
2022-09-09T03:11:18.111Z,14.10
2022-09-09T03:13:44.853Z,14.10
2022-09-09T03:16:11.674Z,14.10
2022-09-09T03:18:43.729Z,14.10
2022-09-09T03:21:10.859Z,14.10
2022-09-09T03:23:38.766Z,14.20
2022-09-09T03:26:05.642Z,14.20
2022-09-09T03:28:40.344Z,14.20
2022-09-09T03:31:11.440Z,14.30
2022-09-09T03:33:42.129Z,14.20
2022-09-09T03:36:11.703Z,14.20
2022-09-09T03:38:39.007Z,14.30
2022-09-09T03:41:08.751Z,14.40
2022-09-09T03:43:36.180Z,14.40
2022-09-09T03:46:03.123Z,14.40
2022-09-09T03:48:30.786Z,14.40
2022-09-09T03:51:01.672Z,14.40
2022-09-09T03:53:29.980Z,14.40
2022-09-09T03:56:00.807Z,14.50
2022-09-09T03:58:29.148Z,14.50
2022-09-09T04:01:07.545Z,14.50
2022-09-09T04:03:34.618Z,14.50
2022-09-09T04:06:05.646Z,14.50
2022-09-09T04:08:33.175Z,14.50
2022-09-09T04:11:03.207Z,14.60
2022-09-09T04:13:31.122Z,14.60
2022-09-09T04:16:00.247Z,14.70
2022-09-09T04:18:29.105Z,14.70
2022-09-09T04:20:58.270Z,14.70
2022-09-09T04:23:30.470Z,14.70
2022-09-09T04:26:00.105Z,14.80
2022-09-09T04:28:30.393Z,14.70
2022-09-09T04:30:58.597Z,14.80
2022-09-09T04:33:29.022Z,14.70
2022-09-09T04:35:56.277Z,14.70
2022-09-09T04:38:25.387Z,14.80
2022-09-09T04:40:52.929Z,14.70
2022-09-09T04:43:19.974Z,14.80
2022-09-09T04:45:49.590Z,14.80
2022-09-09T04:48:16.997Z,14.80
2022-09-09T04:50:43.983Z,14.90
2022-09-09T04:53:12.593Z,15.00
2022-09-09T04:55:39.886Z,15.00
2022-09-09T04:58:08.766Z,15.00
2022-09-09T05:00:36.813Z,15.00
2022-09-09T05:03:06.979Z,15.10
2022-09-09T05:05:35.259Z,15.10
2022-09-09T05:08:06.879Z,15.00
2022-09-09T05:10:35.358Z,15.10
2022-09-09T05:13:02.289Z,15.10
2022-09-09T05:15:30.818Z,15.10
2022-09-09T05:18:02.328Z,15.10
2022-09-09T05:20:31.577Z,15.10
2022-09-09T05:22:58.423Z,15.20
2022-09-09T05:25:35.322Z,15.20
2022-09-09T05:28:02.300Z,15.30
2022-09-09T05:30:29.044Z,15.30
2022-09-09T05:32:59.344Z,15.30
2022-09-09T05:35:26.818Z,15.40
2022-09-09T05:37:53.721Z,15.40
2022-09-09T05:40:36.100Z,15.50
2022-09-09T05:43:03.031Z,15.50
2022-09-09T05:45:29.795Z,15.50
2022-09-09T05:47:56.555Z,15.60
2022-09-09T05:50:23.472Z,15.70
2022-09-09T05:52:55.518Z,16.00
2022-09-09T05:55:22.309Z,16.50
2022-09-09T05:57:50.746Z,17.00
2022-09-09T06:00:17.755Z,17.40
2022-09-09T06:02:53.461Z,17.40
2022-09-09T06:05:23.811Z,17.50
2022-09-09T06:07:53.993Z,17.50
2022-09-09T06:10:20.916Z,17.50
2022-09-09T06:12:47.717Z,18.00
2022-09-09T06:15:14.690Z,18.50
2022-09-09T06:17:42.769Z,18.90
2022-09-09T06:20:10.362Z,19.10
2022-09-09T06:22:37.178Z,19.40
2022-09-09T06:25:04.241Z,19.80
2022-09-09T06:27:31.135Z,19.90
2022-09-09T06:29:58.245Z,19.90
2022-09-09T06:32:25.121Z,19.60
2022-09-09T06:34:51.938Z,19.40
2022-09-09T06:37:19.730Z,19.50
2022-09-09T06:39:50.299Z,20.20
2022-09-09T06:42:17.550Z,20.70
2022-09-09T06:44:53.324Z,20.70
2022-09-09T06:47:55.393Z,20.40
2022-09-09T06:50:22.944Z,19.70
2022-09-09T06:52:50.562Z,20.10
2022-09-09T06:55:18.678Z,20.20
2022-09-09T06:57:45.774Z,20.00
2022-09-09T07:00:17.981Z,19.50
2022-09-09T07:02:45.393Z,18.90
2022-09-09T07:05:13.287Z,18.50
2022-09-09T07:07:42.176Z,18.40
2022-09-09T07:10:11.039Z,18.50
2022-09-09T07:12:38.590Z,18.60
2022-09-09T07:15:06.950Z,19.00
2022-09-09T07:17:33.745Z,19.10
2022-09-09T07:20:00.818Z,19.00
2022-09-09T07:22:29.559Z,18.90
2022-09-09T07:24:57.014Z,18.70
2022-09-09T07:27:24.719Z,18.50
2022-09-09T07:29:54.753Z,18.60
2022-09-09T07:32:22.164Z,19.50
2022-09-09T07:34:49.015Z,19.70
2022-09-09T07:37:15.902Z,19.50
2022-09-09T07:39:45.292Z,19.50
2022-09-09T07:42:13.916Z,19.30
2022-09-09T07:44:40.799Z,19.70
2022-09-09T07:47:13.735Z,20.00
2022-09-09T07:49:47.199Z,20.50
2022-09-09T07:52:19.606Z,21.00
2022-09-09T07:54:50.643Z,21.30
2022-09-09T07:57:19.545Z,21.80
2022-09-09T07:59:49.844Z,22.50
2022-09-09T08:02:16.814Z,22.70
2022-09-09T08:04:44.478Z,22.70
2022-09-09T08:07:11.782Z,22.30
2022-09-09T08:09:45.779Z,21.90
2022-09-09T08:12:26.240Z,22.10
2022-09-09T08:14:55.839Z,22.70
2022-09-09T08:17:23.803Z,22.90
2022-09-09T08:19:51.550Z,22.80
2022-09-09T08:22:23.082Z,22.50
2022-09-09T08:24:50.624Z,22.00
2022-09-09T08:27:18.212Z,21.50
2022-09-09T08:29:45.639Z,21.00
2022-09-09T08:32:12.462Z,20.70
2022-09-09T08:34:46.460Z,20.30
2022-09-09T08:37:17.846Z,20.00
2022-09-09T08:39:45.002Z,19.70
2022-09-09T08:42:23.338Z,19.40
2022-09-09T08:45:30.753Z,19.20
2022-09-09T08:48:15.538Z,19.30
2022-09-09T08:50:44.357Z,19.40
2022-09-09T08:53:33.503Z,19.60
2022-09-09T08:56:12.610Z,19.60
2022-09-09T08:58:51.445Z,19.60
2022-09-09T09:01:54.968Z,19.70
2022-09-09T09:04:53.899Z,20.20
2022-09-09T09:07:45.025Z,20.60
2022-09-09T09:10:48.882Z,21.00
2022-09-09T09:13:24.234Z,21.10
2022-09-09T09:16:02.929Z,21.00
2022-09-09T09:18:29.874Z,21.00
2022-09-09T09:21:06.162Z,20.70
2022-09-09T09:23:46.401Z,20.40
2022-09-09T09:26:13.545Z,20.20
2022-09-09T09:28:41.485Z,20.10
2022-09-09T09:31:14.903Z,20.10
2022-09-09T09:33:50.490Z,20.30
2022-09-09T09:36:19.114Z,20.30
2022-09-09T09:41:49.883Z,20.00
2022-09-09T09:44:28.701Z,20.00
2022-09-09T09:47:14.264Z,19.70
2022-09-09T09:49:59.575Z,19.50
2022-09-09T09:52:31.254Z,19.30
2022-09-09T09:55:07.459Z,19.20
2022-09-09T09:57:35.304Z,19.00
2022-09-09T10:00:23.908Z,18.90
2022-09-09T10:03:01.247Z,18.90
2022-09-09T10:05:36.028Z,18.80
2022-09-09T10:08:14.424Z,18.70
2022-09-09T10:11:08.579Z,18.60
2022-09-09T10:13:48.089Z,18.60
2022-09-09T10:16:30.047Z,18.70
2022-09-09T10:19:02.653Z,19.10
2022-09-09T10:21:58.768Z,19.60
2022-09-09T10:25:04.215Z,19.90
2022-09-09T10:27:57.762Z,20.00
2022-09-09T10:30:44.069Z,19.80
2022-09-09T10:33:19.549Z,19.70
2022-09-09T10:35:46.785Z,19.60
2022-09-09T10:38:15.377Z,19.50
2022-09-09T10:40:54.379Z,19.30
2022-09-09T10:43:40.285Z,19.30
2022-09-09T10:46:13.626Z,19.40
2022-09-09T10:48:58.520Z,19.50
2022-09-09T10:51:50.342Z,19.50
2022-09-09T10:54:39.078Z,19.20
2022-09-09T10:57:14.903Z,19.20
2022-09-09T10:59:51.274Z,19.20
2022-09-09T11:02:31.248Z,19.40
2022-09-09T11:05:30.066Z,19.70
2022-09-09T11:07:59.094Z,20.00
2022-09-09T11:10:35.228Z,20.30
2022-09-09T11:13:09.303Z,20.40
2022-09-09T11:15:47.002Z,20.50
2022-09-09T11:18:22.654Z,20.60
2022-09-09T11:20:53.034Z,20.70
2022-09-09T11:23:28.798Z,20.60
2022-09-09T11:26:04.592Z,20.30
2022-09-09T11:29:24.166Z,19.90
2022-09-09T11:32:28.770Z,19.70
2022-09-09T11:35:29.473Z,19.50
2022-09-09T11:38:10.575Z,19.30
2022-09-09T11:40:37.661Z,19.10
2022-09-09T11:43:15.215Z,18.90
2022-09-09T11:45:44.174Z,18.70
2022-09-09T11:48:25.937Z,18.60
2022-09-09T11:51:11.086Z,18.60
2022-09-09T11:53:59.683Z,18.40
2022-09-09T11:56:45.649Z,18.00
2022-09-09T11:59:30.934Z,17.80
2022-09-09T12:02:24.291Z,17.50
2022-09-09T12:05:03.808Z,17.30
2022-09-09T12:07:46.940Z,17.20
2022-09-09T12:10:33.919Z,17.30
2022-09-09T12:13:23.824Z,17.40
2022-09-09T12:15:51.878Z,17.70
2022-09-09T12:18:41.597Z,18.20
2022-09-09T12:21:19.512Z,18.50
2022-09-09T12:23:53.715Z,18.70
2022-09-09T12:26:32.455Z,18.80
2022-09-09T12:29:20.321Z,18.90
2022-09-09T12:31:57.561Z,18.90
2022-09-09T12:34:30.821Z,18.90
2022-09-09T12:37:04.910Z,18.90
2022-09-09T12:39:47.465Z,18.90
2022-09-09T12:42:19.362Z,19.10
2022-09-09T12:44:57.857Z,19.10
2022-09-09T12:47:52.199Z,19.20
2022-09-09T12:50:26.742Z,19.30
2022-09-09T12:52:58.025Z,19.30
2022-09-09T12:55:31.904Z,19.40
2022-09-09T12:58:00.516Z,19.50
2022-09-09T13:00:29.123Z,19.40
2022-09-09T13:02:58.570Z,19.30
2022-09-09T13:05:27.067Z,19.20
2022-09-09T13:08:06.011Z,19.30
2022-09-09T13:10:52.797Z,19.50
2022-09-09T13:13:31.020Z,19.80
2022-09-09T13:16:00.262Z,20.00
2022-09-09T13:18:32.845Z,20.00
2022-09-09T13:20:59.857Z,20.00
2022-09-09T13:23:30.378Z,20.10
2022-09-09T13:26:24.991Z,20.20
2022-09-09T13:28:53.957Z,20.20
2022-09-09T13:31:33.698Z,20.30
2022-09-09T13:34:01.038Z,20.10
2022-09-09T13:36:35.944Z,20.00
2022-09-09T13:39:04.845Z,19.70
2022-09-09T13:41:36.011Z,19.50
2022-09-09T13:44:04.974Z,19.30
2022-09-09T13:46:43.337Z,19.20
2022-09-09T13:49:10.042Z,18.90
2022-09-09T13:51:47.813Z,18.40
2022-09-09T13:54:17.204Z,18.00
2022-09-09T13:56:44.921Z,17.60
2022-09-09T13:59:30.673Z,17.40
2022-09-09T14:02:09.643Z,17.10
2022-09-09T14:04:36.419Z,16.70
2022-09-09T14:07:04.306Z,16.60
2022-09-09T14:09:31.077Z,16.50
2022-09-09T14:11:58.437Z,16.40
2022-09-09T14:14:26.766Z,16.40
2022-09-09T14:16:53.546Z,16.40
2022-09-09T14:19:20.971Z,16.20
2022-09-09T14:21:47.810Z,16.30
2022-09-09T14:24:15.220Z,16.40
2022-09-09T14:26:41.994Z,16.50
2022-09-09T14:29:08.771Z,16.60
2022-09-09T14:31:35.541Z,16.80
2022-09-09T14:34:02.328Z,16.90
2022-09-09T14:36:29.059Z,17.00
2022-09-09T14:38:55.853Z,17.10
2022-09-09T14:41:23.657Z,17.30
2022-09-09T14:43:51.193Z,17.30
2022-09-09T14:46:19.608Z,17.40
2022-09-09T14:48:49.541Z,17.50
2022-09-09T14:51:25.383Z,17.50
2022-09-09T14:53:56.391Z,17.60
2022-09-09T14:56:25.629Z,17.80
2022-09-09T14:58:56.282Z,18.00
2022-09-09T15:01:24.333Z,18.10
2022-09-09T15:03:53.885Z,18.20
2022-09-09T15:06:22.214Z,18.20
2022-09-09T15:08:51.281Z,18.40
2022-09-09T15:11:18.109Z,18.50
2022-09-09T15:13:45.335Z,18.60
2022-09-09T15:16:17.808Z,18.60
2022-09-09T15:18:46.420Z,18.50
2022-09-09T15:21:15.590Z,18.50
2022-09-09T15:23:44.317Z,18.60
2022-09-09T15:26:11.843Z,18.70
2022-09-09T15:28:39.529Z,18.80
2022-09-09T15:31:16.175Z,18.90
2022-09-09T15:33:47.471Z,18.90
2022-09-09T15:36:25.966Z,18.90
2022-09-09T15:38:53.554Z,19.00
2022-09-09T15:41:22.151Z,19.00
2022-09-09T15:43:51.545Z,19.00
2022-09-09T15:46:29.962Z,19.00
2022-09-09T15:49:05.350Z,19.00
2022-09-09T15:51:47.679Z,19.00
2022-09-09T15:54:18.522Z,19.10
2022-09-09T15:56:51.265Z,19.20
2022-09-09T15:59:18.206Z,19.20
2022-09-09T16:01:45.610Z,19.30
2022-09-09T16:04:13.040Z,19.20
2022-09-09T16:06:40.175Z,19.20
2022-09-09T16:09:08.458Z,19.10
2022-09-09T16:11:38.308Z,19.10
2022-09-09T16:14:07.541Z,19.20
2022-09-09T16:16:36.265Z,19.20
2022-09-09T16:19:13.441Z,19.20
2022-09-09T16:21:43.189Z,19.20
2022-09-09T16:24:12.065Z,19.20
2022-09-09T16:26:41.185Z,19.30
2022-09-09T16:29:08.057Z,19.30
2022-09-09T16:31:35.015Z,19.40
2022-09-09T16:34:10.887Z,19.40
2022-09-09T16:36:42.464Z,19.40
2022-09-09T16:39:12.286Z,19.40
2022-09-09T16:41:40.563Z,19.40
2022-09-09T16:44:09.746Z,19.40
2022-09-09T16:46:39.916Z,19.30
2022-09-09T16:49:09.525Z,19.30
2022-09-09T16:51:39.465Z,19.10
2022-09-09T16:54:08.140Z,19.10
2022-09-09T16:56:38.057Z,18.90
2022-09-09T16:59:15.439Z,19.00
2022-09-09T17:01:44.236Z,18.90
2022-09-09T17:04:21.706Z,19.00
2022-09-09T17:06:50.359Z,19.00
2022-09-09T17:09:17.775Z,19.00
2022-09-09T17:11:45.053Z,19.00
2022-09-09T17:14:16.518Z,18.90
2022-09-09T17:16:44.174Z,18.80
2022-09-09T17:19:11.715Z,18.70
2022-09-09T17:21:54.554Z,18.60
2022-09-09T17:24:27.528Z,18.50
2022-09-09T17:26:55.387Z,18.40
2022-09-09T17:29:22.853Z,18.30
2022-09-09T17:31:49.586Z,18.20
2022-09-09T17:34:40.251Z,18.10
2022-09-09T17:37:07.700Z,18.10
2022-09-09T17:39:37.173Z,18.10
2022-09-09T17:42:04.241Z,18.10
2022-09-09T17:44:33.331Z,18.00
2022-09-09T17:47:00.461Z,18.10
2022-09-09T17:49:27.226Z,18.10
2022-09-09T17:51:54.893Z,18.10
2022-09-09T17:54:21.903Z,18.10
2022-09-09T17:56:49.266Z,18.00
2022-09-09T17:59:17.978Z,17.90
2022-09-09T18:01:47.612Z,17.80
2022-09-09T18:04:16.573Z,17.70
2022-09-09T18:06:49.619Z,17.50
2022-09-09T18:09:19.776Z,17.30
2022-09-09T18:11:49.293Z,17.10
2022-09-09T18:14:20.234Z,17.00
2022-09-09T18:16:47.657Z,16.90
2022-09-09T18:19:17.774Z,16.90
2022-09-09T18:21:44.987Z,16.80
2022-09-09T18:24:13.415Z,16.70
2022-09-09T18:26:41.305Z,16.50
2022-09-09T18:29:11.233Z,16.40
2022-09-09T18:31:38.927Z,16.20
2022-09-09T18:34:08.122Z,16.20
2022-09-09T18:36:37.902Z,16.10
2022-09-09T18:39:06.918Z,15.90
2022-09-09T18:41:35.906Z,15.80
2022-09-09T18:44:05.806Z,15.70
2022-09-09T18:46:36.787Z,15.70
2022-09-09T18:49:05.730Z,15.60
2022-09-09T18:51:33.566Z,15.60
2022-09-09T18:54:03.849Z,15.50
2022-09-09T18:56:31.352Z,15.50
2022-09-09T18:59:00.906Z,15.50
2022-09-09T19:01:28.859Z,15.50
2022-09-09T19:03:59.487Z,15.50
2022-09-09T19:06:30.574Z,15.50
2022-09-09T19:09:03.133Z,15.50
2022-09-09T19:11:30.687Z,15.50
2022-09-09T19:14:00.401Z,15.60
2022-09-09T19:16:29.966Z,15.60
2022-09-09T19:19:01.979Z,15.60
2022-09-09T19:21:31.914Z,15.60
2022-09-09T19:24:00.646Z,15.60
2022-09-09T19:26:29.737Z,15.60
2022-09-09T19:28:58.381Z,15.70
2022-09-09T19:32:01.975Z,15.70
2022-09-09T19:34:33.383Z,15.60
2022-09-09T19:37:00.673Z,15.70
2022-09-09T19:39:27.542Z,15.60
2022-09-09T19:41:54.393Z,15.60
2022-09-09T19:44:21.153Z,15.60
2022-09-09T19:46:47.982Z,15.60
2022-09-09T19:49:15.658Z,15.60
2022-09-09T19:51:43.386Z,15.60
2022-09-09T19:54:14.003Z,15.60
2022-09-09T19:56:42.745Z,15.50
2022-09-09T19:59:12.074Z,15.50
2022-09-09T20:01:41.495Z,15.50
2022-09-09T20:04:09.229Z,15.50
2022-09-09T20:06:38.726Z,15.50
2022-09-09T20:09:07.595Z,15.50
2022-09-09T20:11:34.582Z,15.40
2022-09-09T20:14:01.422Z,15.50
2022-09-09T20:16:30.470Z,15.50
2022-09-09T20:19:03.752Z,15.50
2022-09-09T20:21:36.624Z,15.50
2022-09-09T20:24:06.205Z,15.40
2022-09-09T20:26:35.201Z,15.50
2022-09-09T20:29:10.506Z,15.50
2022-09-09T20:31:42.908Z,15.50
2022-09-09T20:34:18.911Z,15.50
2022-09-09T20:36:46.564Z,15.50
2022-09-09T20:39:19.708Z,15.50
2022-09-09T20:41:47.698Z,15.50
2022-09-09T20:44:17.362Z,15.50
2022-09-09T20:46:48.289Z,15.60
2022-09-09T20:49:17.816Z,15.50
2022-09-09T20:51:45.837Z,15.50
2022-09-09T20:54:18.244Z,15.50
2022-09-09T20:56:46.280Z,15.50
2022-09-09T20:59:15.523Z,15.50
2022-09-09T21:01:42.454Z,15.40
2022-09-09T21:04:10.828Z,15.50
2022-09-09T21:06:37.668Z,15.50
2022-09-09T21:09:04.799Z,15.50
2022-09-09T21:11:32.610Z,15.50
2022-09-09T21:13:59.674Z,15.40
2022-09-09T21:16:27.875Z,15.40
2022-09-09T21:18:54.922Z,15.40
2022-09-09T21:21:21.713Z,15.40
2022-09-09T21:23:49.760Z,15.30
2022-09-09T21:26:19.542Z,15.30
2022-09-09T21:28:46.460Z,15.30
2022-09-09T21:31:15.033Z,15.30
2022-09-09T21:33:41.968Z,15.30
2022-09-09T21:36:11.085Z,15.30
2022-09-09T21:38:40.038Z,15.30
2022-09-09T21:41:12.955Z,15.30
2022-09-09T21:43:42.019Z,15.30
2022-09-09T21:46:15.661Z,15.30
2022-09-09T21:48:43.261Z,15.30
2022-09-09T21:51:12.939Z,15.30
2022-09-09T21:53:39.728Z,15.20
2022-09-09T21:56:10.303Z,15.20
2022-09-09T21:58:37.471Z,15.10
2022-09-09T22:01:16.477Z,15.10
2022-09-09T22:03:44.018Z,15.10
2022-09-09T22:06:14.635Z,15.00
2022-09-09T22:08:42.728Z,15.00
2022-09-09T22:11:18.984Z,15.00
2022-09-09T22:13:48.954Z,14.90
2022-09-09T22:16:18.442Z,15.00
2022-09-09T22:18:50.362Z,15.00
2022-09-09T22:21:18.380Z,15.00
2022-09-09T22:23:50.249Z,15.00
2022-09-09T22:26:17.008Z,15.00
2022-09-09T22:28:43.751Z,15.00
2022-09-09T22:31:10.581Z,15.00
2022-09-09T22:33:37.398Z,15.00
2022-09-09T22:36:05.007Z,14.90
2022-09-09T22:38:34.751Z,14.80
2022-09-09T22:41:02.961Z,14.80
2022-09-09T22:43:29.914Z,14.70
2022-09-09T22:45:56.680Z,14.70
2022-09-09T22:48:24.645Z,14.70
2022-09-09T22:50:51.488Z,14.60
2022-09-09T22:53:21.411Z,14.60
2022-09-09T22:55:59.718Z,14.60
2022-09-09T22:58:32.628Z,14.60
2022-09-09T23:01:00.198Z,14.60
2022-09-09T23:03:28.861Z,14.60
2022-09-09T23:05:57.533Z,14.70
2022-09-09T23:08:26.408Z,14.70
2022-09-09T23:10:55.557Z,14.70
2022-09-09T23:13:23.518Z,14.70
2022-09-09T23:15:51.337Z,14.70
2022-09-09T23:18:18.424Z,14.70
2022-09-09T23:20:45.404Z,14.70
2022-09-09T23:23:13.199Z,14.60
2022-09-09T23:25:39.971Z,14.60
2022-09-09T23:28:06.776Z,14.60
2022-09-09T23:30:33.519Z,14.60
2022-09-09T23:33:00.258Z,14.60
2022-09-09T23:35:27.090Z,14.70
2022-09-09T23:37:53.831Z,14.70
2022-09-09T23:40:20.639Z,14.70
2022-09-09T23:42:47.609Z,14.70
2022-09-09T23:45:15.026Z,14.80
2022-09-09T23:47:41.788Z,14.80
2022-09-09T23:50:09.792Z,14.80
2022-09-09T23:52:37.263Z,14.80
2022-09-09T23:55:05.640Z,14.80
2022-09-09T23:57:32.382Z,14.70
2022-09-09T23:59:59.146Z,14.70
